createdAt,value
2019-02-15T00:01:13.751Z,20.63
2019-02-15T00:03:42.186Z,23.03
2019-02-15T00:06:10.628Z,17.60
2019-02-15T00:08:41.101Z,18.90
2019-02-15T00:11:09.514Z,24.67
2019-02-15T00:13:37.917Z,18.73
2019-02-15T00:16:06.353Z,18.90
2019-02-15T00:18:42.108Z,27.33
2019-02-15T00:21:21.022Z,19.60
2019-02-15T00:23:49.418Z,28.90
2019-02-15T00:26:17.860Z,21.03
2019-02-15T00:28:46.451Z,24.20
2019-02-15T00:31:16.491Z,20.63
2019-02-15T00:33:45.197Z,19.37
2019-02-15T00:36:13.674Z,18.07
2019-02-15T00:38:42.953Z,21.23
2019-02-15T00:41:11.372Z,22.67
2019-02-15T00:43:39.773Z,19.83
2019-02-15T00:46:26.277Z,27.07
2019-02-15T00:48:55.141Z,19.73
2019-02-15T00:51:34.048Z,20.87
2019-02-15T00:54:04.097Z,21.30
2019-02-15T00:56:36.835Z,18.77
2019-02-15T00:59:12.591Z,18.10
2019-02-15T01:01:42.663Z,21.83
2019-02-15T01:04:12.699Z,16.70
2019-02-15T01:06:42.848Z,19.67
2019-02-15T01:09:26.421Z,17.70
2019-02-15T01:12:11.497Z,18.90
2019-02-15T01:14:39.897Z,17.87
2019-02-15T01:17:09.088Z,19.90
2019-02-15T01:19:37.495Z,19.70
2019-02-15T01:22:05.905Z,21.37
2019-02-15T01:24:34.307Z,19.47
2019-02-15T01:27:04.391Z,19.33
2019-02-15T01:29:37.166Z,20.43
2019-02-15T01:32:22.304Z,21.60
2019-02-15T01:35:10.589Z,30.50
2019-02-15T01:37:55.566Z,19.73
2019-02-15T01:40:41.752Z,20.00
2019-02-15T01:43:14.516Z,17.00
2019-02-15T01:45:44.628Z,18.10
2019-02-15T01:48:13.056Z,21.13
2019-02-15T01:50:41.452Z,20.37
2019-02-15T01:53:09.898Z,20.00
2019-02-15T01:55:38.415Z,19.97
2019-02-15T01:58:06.832Z,19.03
2019-02-15T02:00:36.209Z,19.80
2019-02-15T02:03:04.616Z,18.80
2019-02-15T02:05:33.037Z,16.00
2019-02-15T02:08:01.723Z,21.53
2019-02-15T02:10:30.129Z,24.50
2019-02-15T02:12:58.769Z,20.97
2019-02-15T02:15:27.176Z,18.10
2019-02-15T02:17:55.593Z,17.07
2019-02-15T02:20:23.992Z,24.03
2019-02-15T02:22:52.409Z,21.07
2019-02-15T02:25:20.808Z,20.70
2019-02-15T02:27:49.347Z,28.70
2019-02-15T02:30:17.766Z,21.27
2019-02-15T02:32:46.190Z,23.73
2019-02-15T02:35:14.593Z,20.47
2019-02-15T02:37:43.004Z,26.20
2019-02-15T02:40:11.424Z,19.30
2019-02-15T02:42:39.832Z,17.73
2019-02-15T02:45:08.601Z,20.93
2019-02-15T02:47:37.012Z,24.30
2019-02-15T02:50:07.279Z,23.63
2019-02-15T02:52:35.882Z,20.63
2019-02-15T02:55:05.525Z,18.67
2019-02-15T02:57:33.954Z,23.27
2019-02-15T03:00:04.437Z,25.47
2019-02-15T03:02:32.844Z,22.33
2019-02-15T03:05:01.275Z,23.23
2019-02-15T03:07:29.685Z,24.37
2019-02-15T03:09:58.082Z,25.63
2019-02-15T03:12:26.574Z,19.97
2019-02-15T03:14:54.990Z,20.93
2019-02-15T03:17:23.383Z,24.97
2019-02-15T03:19:51.818Z,21.37
2019-02-15T03:22:20.286Z,22.07
2019-02-15T03:24:48.701Z,21.20
2019-02-15T03:27:17.126Z,25.30
2019-02-15T03:29:45.689Z,18.30
2019-02-15T03:32:14.094Z,25.37
2019-02-15T03:34:42.510Z,19.80
2019-02-15T03:37:12.576Z,22.53
2019-02-15T03:39:42.680Z,24.23
2019-02-15T03:42:12.975Z,28.47
2019-02-15T03:44:41.493Z,23.27
2019-02-15T03:47:09.893Z,23.23
2019-02-15T03:49:38.324Z,28.57
2019-02-15T03:52:06.834Z,20.93
2019-02-15T03:54:35.288Z,24.93
2019-02-15T03:57:03.694Z,27.33
2019-02-15T03:59:32.115Z,22.10
2019-02-15T04:02:00.543Z,22.50
2019-02-15T04:04:28.931Z,21.43
2019-02-15T04:06:57.353Z,20.97
2019-02-15T04:09:25.773Z,34.23
2019-02-15T04:11:54.280Z,26.30
2019-02-15T04:14:32.277Z,20.93
2019-02-15T04:16:52.827Z,22.10
2019-02-15T04:19:21.224Z,21.33
2019-02-15T04:21:49.652Z,19.80
2019-02-15T04:24:18.070Z,26.67
2019-02-15T04:26:46.692Z,18.93
2019-02-15T04:29:15.093Z,28.97
2019-02-15T04:31:43.508Z,22.00
2019-02-15T04:34:11.924Z,23.37
2019-02-15T04:36:40.450Z,19.43
2019-02-15T04:39:08.859Z,18.83
2019-02-15T04:41:37.269Z,22.80
2019-02-15T04:44:05.687Z,19.87
2019-02-15T04:46:34.093Z,22.13
2019-02-15T04:49:02.489Z,24.00
2019-02-15T04:51:30.904Z,20.37
2019-02-15T04:53:59.309Z,20.90
2019-02-15T04:56:27.714Z,26.60
2019-02-15T04:58:56.132Z,19.73
2019-02-15T05:01:24.599Z,18.50
2019-02-15T05:03:53.522Z,20.90
2019-02-15T05:06:21.979Z,18.60
2019-02-15T05:08:50.396Z,21.40
2019-02-15T05:11:18.892Z,20.67
2019-02-15T05:13:47.298Z,21.90
2019-02-15T05:16:15.705Z,19.07
2019-02-15T05:18:44.111Z,22.13
2019-02-15T05:21:12.932Z,19.83
2019-02-15T05:23:41.725Z,28.73
2019-02-15T05:26:10.173Z,20.67
2019-02-15T05:28:38.576Z,21.20
2019-02-15T05:31:06.996Z,23.53
2019-02-15T05:33:35.747Z,21.57
2019-02-15T05:36:04.498Z,19.00
2019-02-15T05:38:33.028Z,18.40
2019-02-15T05:41:01.438Z,22.47
2019-02-15T05:43:29.853Z,21.30
2019-02-15T05:45:58.260Z,25.30
2019-02-15T05:48:26.676Z,17.53
2019-02-15T05:50:55.083Z,26.53
2019-02-15T05:53:23.501Z,24.20
2019-02-15T05:55:51.951Z,25.63
2019-02-15T05:58:20.503Z,20.93
2019-02-15T06:00:48.916Z,28.13
2019-02-15T06:03:17.355Z,17.07
2019-02-15T06:05:45.773Z,23.73
2019-02-15T06:08:14.246Z,27.53
2019-02-15T06:10:42.658Z,20.70
2019-02-15T06:13:12.324Z,23.13
2019-02-15T06:15:40.722Z,21.10
2019-02-15T06:18:09.271Z,21.00
2019-02-15T06:20:37.698Z,23.23
2019-02-15T06:23:06.234Z,24.60
2019-02-15T06:25:34.639Z,25.10
2019-02-15T06:28:03.110Z,21.07
2019-02-15T06:30:33.296Z,20.13
2019-02-15T06:33:01.723Z,23.80
2019-02-15T06:35:30.132Z,24.00
2019-02-15T06:37:58.716Z,23.43
2019-02-15T06:40:27.134Z,20.47
2019-02-15T06:42:55.725Z,19.03
2019-02-15T06:45:25.436Z,20.30
2019-02-15T06:47:54.226Z,20.00
2019-02-15T06:50:22.646Z,21.00
2019-02-15T06:52:51.129Z,18.27
2019-02-15T06:55:19.538Z,30.20
2019-02-15T06:57:47.946Z,21.03
2019-02-15T07:00:24.004Z,21.50
2019-02-15T07:03:02.021Z,41.20
2019-02-15T07:05:30.555Z,22.83
2019-02-15T07:07:59.013Z,33.60
2019-02-15T07:10:27.424Z,25.57
2019-02-15T07:12:55.833Z,18.97
2019-02-15T07:15:33.181Z,26.63
2019-02-15T07:17:54.401Z,21.23
2019-02-15T07:20:22.818Z,25.73
2019-02-15T07:22:51.245Z,21.63
2019-02-15T07:25:19.657Z,22.37
2019-02-15T07:27:48.078Z,24.70
2019-02-15T07:30:16.484Z,19.60
2019-02-15T07:32:44.887Z,33.13
2019-02-15T07:35:13.294Z,25.67
2019-02-15T07:37:41.733Z,27.33
2019-02-15T07:40:10.820Z,21.87
2019-02-15T07:42:39.227Z,22.40
2019-02-15T07:45:10.572Z,26.30
2019-02-15T07:47:38.998Z,24.43
2019-02-15T07:50:10.825Z,21.43
2019-02-15T07:52:39.376Z,33.00
2019-02-15T07:55:09.049Z,19.57
2019-02-15T07:57:37.496Z,30.03
2019-02-15T08:00:11.722Z,20.53
2019-02-15T08:02:40.144Z,16.70
2019-02-15T08:05:09.605Z,22.33
2019-02-15T08:07:39.545Z,16.83
2019-02-15T08:10:10.355Z,24.83
2019-02-15T08:12:38.737Z,18.17
2019-02-15T08:15:09.491Z,18.20
2019-02-15T08:17:37.933Z,21.03
2019-02-15T08:20:09.367Z,38.33
2019-02-15T08:22:37.893Z,21.10
2019-02-15T08:25:06.828Z,16.57
2019-02-15T08:27:35.252Z,30.67
2019-02-15T08:30:03.836Z,25.90
2019-02-15T08:32:32.264Z,29.80
2019-02-15T08:35:00.719Z,28.17
2019-02-15T08:37:29.192Z,36.00
2019-02-15T08:39:57.597Z,23.87
2019-02-15T08:42:26.013Z,23.47
2019-02-15T08:44:54.417Z,19.97
2019-02-15T08:47:22.848Z,23.57
2019-02-15T08:49:51.276Z,34.03
2019-02-15T08:52:19.686Z,17.30
2019-02-15T08:54:48.096Z,26.63
2019-02-15T08:57:16.496Z,23.23
2019-02-15T08:59:44.899Z,16.07
2019-02-15T09:02:16.528Z,15.23
2019-02-15T09:04:44.936Z,21.70
2019-02-15T09:07:13.359Z,24.13
2019-02-15T09:09:41.765Z,26.80
2019-02-15T09:12:10.247Z,24.60
2019-02-15T09:14:38.666Z,16.43
2019-02-15T09:17:07.287Z,16.77
2019-02-15T09:19:36.060Z,18.00
2019-02-15T09:22:04.479Z,15.40
2019-02-15T09:24:32.882Z,16.50
2019-02-15T09:27:02.942Z,16.20
2019-02-15T09:29:31.345Z,18.07
2019-02-15T09:31:59.772Z,27.37
2019-02-15T09:34:28.207Z,19.33
2019-02-15T09:36:56.668Z,18.63
2019-02-15T09:39:25.073Z,22.93
2019-02-15T09:41:53.476Z,31.23
2019-02-15T09:44:21.900Z,25.80
2019-02-15T09:46:50.353Z,29.73
2019-02-15T09:49:20.475Z,21.13
2019-02-15T09:51:49.632Z,23.47
2019-02-15T09:54:19.692Z,18.37
2019-02-15T09:56:48.319Z,22.77
2019-02-15T09:59:16.722Z,19.03
2019-02-15T10:01:45.134Z,28.33
2019-02-15T10:04:13.852Z,22.60
2019-02-15T10:06:42.252Z,45.93
2019-02-15T10:09:10.671Z,24.17
2019-02-15T10:11:39.082Z,27.83
2019-02-15T10:14:07.563Z,31.80
2019-02-15T10:16:35.973Z,29.10
2019-02-15T10:19:04.389Z,33.73
2019-02-15T10:21:32.928Z,22.20
2019-02-15T10:24:01.344Z,28.57
2019-02-15T10:26:29.743Z,33.83
2019-02-15T10:28:58.183Z,16.47
2019-02-15T10:31:26.913Z,34.30
2019-02-15T10:33:55.330Z,25.83
2019-02-15T10:36:23.737Z,38.53
2019-02-15T10:38:52.216Z,19.90
2019-02-15T10:41:20.632Z,15.93
2019-02-15T10:43:49.060Z,21.13
2019-02-15T10:46:19.620Z,16.53
2019-02-15T10:48:48.047Z,17.77
2019-02-15T10:51:16.519Z,28.60
2019-02-15T10:53:44.917Z,16.40
2019-02-15T10:56:13.337Z,20.03
2019-02-15T10:58:41.741Z,18.30
2019-02-15T11:01:10.152Z,18.47
2019-02-15T11:03:38.567Z,18.00
2019-02-15T11:06:06.977Z,19.83
2019-02-15T11:08:35.386Z,22.07
2019-02-15T11:11:03.887Z,31.43
2019-02-15T11:13:33.065Z,15.17
2019-02-15T11:16:01.482Z,19.63
2019-02-15T11:18:29.912Z,17.30
2019-02-15T11:20:58.341Z,25.07
2019-02-15T11:23:26.747Z,17.67
2019-02-15T11:25:55.230Z,24.90
2019-02-15T11:28:23.633Z,24.63
2019-02-15T11:30:52.048Z,18.90
2019-02-15T11:33:20.521Z,15.57
2019-02-15T11:35:48.956Z,20.90
2019-02-15T11:38:17.343Z,79.63
2019-02-15T11:40:45.775Z,80.67
2019-02-15T11:43:15.169Z,52.93
2019-02-15T11:45:43.786Z,46.40
2019-02-15T11:48:12.204Z,45.93
2019-02-15T11:50:40.637Z,53.67
2019-02-15T11:53:09.117Z,43.93
2019-02-15T11:55:40.532Z,30.83
2019-02-15T11:58:08.959Z,16.17
2019-02-15T12:00:38.131Z,24.63
2019-02-15T12:03:06.540Z,24.10
2019-02-15T12:05:34.956Z,18.53
2019-02-15T12:08:03.360Z,21.33
2019-02-15T12:10:31.769Z,16.17
2019-02-15T12:13:00.184Z,17.63
2019-02-15T12:15:28.256Z,21.97
2019-02-15T12:17:56.705Z,26.03
2019-02-15T12:20:25.213Z,22.17
2019-02-15T12:22:53.639Z,14.17
2019-02-15T12:25:22.053Z,21.57
2019-02-15T12:27:50.469Z,15.80
2019-02-15T12:30:18.904Z,15.60
2019-02-15T12:32:47.325Z,18.07
2019-02-15T12:35:15.728Z,15.27
2019-02-15T12:37:44.150Z,15.10
2019-02-15T12:40:13.219Z,17.10
2019-02-15T12:42:41.636Z,13.90
2019-02-15T12:45:14.703Z,19.80
2019-02-15T12:47:43.125Z,18.93
2019-02-15T12:50:16.634Z,17.00
2019-02-15T12:52:45.056Z,14.80
2019-02-15T12:55:13.460Z,13.40
2019-02-15T12:57:41.877Z,10.30
2019-02-15T13:00:13.401Z,11.10
2019-02-15T13:02:41.863Z,15.83
2019-02-15T13:05:11.800Z,17.60
2019-02-15T13:07:40.215Z,17.87
2019-02-15T13:10:11.816Z,19.53
2019-02-15T13:12:40.216Z,11.67
2019-02-15T13:15:10.580Z,14.37
2019-02-15T13:17:38.988Z,12.30
2019-02-15T13:20:09.508Z,9.80
2019-02-15T13:22:37.923Z,15.53
2019-02-15T13:25:07.461Z,11.57
2019-02-15T13:27:35.939Z,9.70
2019-02-15T13:30:07.362Z,12.83
2019-02-15T13:32:35.784Z,13.90
2019-02-15T13:35:05.932Z,12.47
2019-02-15T13:37:34.334Z,18.83
2019-02-15T13:40:03.021Z,12.13
2019-02-15T13:42:31.429Z,13.80
2019-02-15T13:44:59.880Z,17.07
2019-02-15T13:47:34.582Z,18.80
2019-02-15T13:49:58.447Z,36.40
2019-02-15T13:52:26.898Z,9.00
2019-02-15T13:54:55.305Z,8.70
2019-02-15T13:57:24.089Z,29.70
2019-02-15T13:59:52.606Z,18.53
2019-02-15T14:02:21.013Z,27.23
2019-02-15T14:04:49.433Z,6.83
2019-02-15T14:07:19.184Z,14.67
2019-02-15T14:09:47.611Z,39.70
2019-02-15T14:12:16.160Z,9.67
2019-02-15T14:14:44.877Z,9.20
2019-02-15T14:17:13.273Z,11.00
2019-02-15T14:19:41.689Z,10.73
2019-02-15T14:22:10.096Z,13.13
2019-02-15T14:24:38.504Z,23.27
2019-02-15T14:27:06.910Z,8.17
2019-02-15T14:29:35.324Z,6.10
2019-02-15T14:32:03.743Z,13.37
2019-02-15T14:34:32.285Z,7.30
2019-02-15T14:37:00.709Z,8.23
2019-02-15T14:39:29.111Z,6.50
2019-02-15T14:41:57.573Z,8.03
2019-02-15T14:44:25.977Z,8.00
2019-02-15T14:46:54.406Z,11.40
2019-02-15T14:49:22.801Z,9.27
2019-02-15T14:51:51.265Z,5.30
2019-02-15T14:54:19.683Z,4.37
2019-02-15T14:56:48.105Z,5.37
2019-02-15T14:59:16.692Z,12.60
2019-02-15T15:01:45.978Z,4.60
2019-02-15T15:04:14.492Z,12.23
2019-02-15T15:06:42.895Z,11.13
2019-02-15T15:09:11.300Z,3.33
2019-02-15T15:11:39.714Z,3.20
2019-02-15T15:14:08.112Z,4.80
2019-02-15T15:16:36.555Z,5.40
2019-02-15T15:19:04.956Z,3.23
2019-02-15T15:21:34.955Z,7.93
2019-02-15T15:24:03.564Z,3.53
2019-02-15T15:26:31.969Z,3.40
2019-02-15T15:29:00.387Z,2.83
2019-02-15T15:31:28.791Z,5.27
2019-02-15T15:33:57.371Z,13.47
2019-02-15T15:36:25.789Z,5.17
2019-02-15T15:38:54.184Z,8.60
2019-02-15T15:41:22.610Z,6.57
2019-02-15T15:43:51.011Z,3.83
2019-02-15T15:46:20.547Z,8.80
2019-02-15T15:48:48.951Z,4.60
2019-02-15T15:51:17.373Z,5.17
2019-02-15T15:53:45.980Z,5.20
2019-02-15T15:56:14.382Z,7.40
2019-02-15T15:58:42.780Z,4.40
2019-02-15T16:01:11.197Z,4.60
2019-02-15T16:03:39.648Z,3.40
2019-02-15T16:06:08.085Z,4.30
2019-02-15T16:08:36.564Z,5.70
2019-02-15T16:11:04.978Z,5.40
2019-02-15T16:13:33.393Z,6.53
2019-02-15T16:16:02.906Z,8.80
2019-02-15T16:18:34.835Z,9.23
2019-02-15T16:21:01.461Z,9.13
2019-02-15T16:23:29.881Z,13.77
2019-02-15T16:25:58.279Z,7.83
2019-02-15T16:28:26.700Z,9.60
2019-02-15T16:30:55.118Z,3.40
2019-02-15T16:33:23.517Z,4.77
2019-02-15T16:35:51.921Z,7.70
2019-02-15T16:38:20.342Z,6.90
2019-02-15T16:40:48.751Z,3.27
2019-02-15T16:43:17.172Z,8.47
2019-02-15T16:45:45.568Z,5.27
2019-02-15T16:48:14.013Z,6.30
2019-02-15T16:50:42.420Z,6.17
2019-02-15T16:53:10.859Z,8.80
2019-02-15T16:55:39.273Z,18.80
2019-02-15T16:58:07.711Z,13.20
2019-02-15T17:00:36.116Z,13.50
2019-02-15T17:03:04.522Z,9.30
2019-02-15T17:05:32.924Z,18.77
2019-02-15T17:08:01.370Z,12.13
2019-02-15T17:10:29.748Z,13.50
2019-02-15T17:12:58.173Z,8.30
2019-02-15T17:15:26.590Z,11.30
2019-02-15T17:17:55.000Z,12.83
2019-02-15T17:20:23.409Z,17.37
2019-02-15T17:22:51.840Z,16.77
2019-02-15T17:25:20.249Z,16.77
2019-02-15T17:27:48.677Z,25.97
2019-02-15T17:30:17.469Z,404.53
2019-02-15T17:32:46.066Z,357.17
2019-02-15T17:35:14.500Z,457.57
2019-02-15T17:37:42.921Z,399.23
2019-02-15T17:40:13.490Z,302.87
2019-02-15T17:42:41.965Z,166.47
2019-02-15T17:45:12.404Z,127.50
2019-02-15T17:47:40.831Z,48.43
2019-02-15T17:50:13.435Z,67.77
2019-02-15T17:52:44.992Z,50.90
2019-02-15T17:55:13.617Z,35.73
2019-02-15T17:57:42.021Z,30.10
2019-02-15T18:00:16.248Z,14.50
2019-02-15T18:02:44.661Z,22.70
2019-02-15T18:05:16.261Z,25.77
2019-02-15T18:07:46.199Z,12.47
2019-02-15T18:10:14.613Z,25.23
2019-02-15T18:12:43.027Z,22.77
2019-02-15T18:15:11.452Z,16.33
2019-02-15T18:17:41.136Z,15.03
2019-02-15T18:20:10.022Z,15.67
2019-02-15T18:22:38.432Z,12.70
2019-02-15T18:25:08.542Z,70.53
2019-02-15T18:27:36.941Z,22.37
2019-02-15T18:30:11.745Z,19.50
2019-02-15T18:32:41.548Z,15.77
2019-02-15T18:35:10.129Z,18.10
2019-02-15T18:37:38.526Z,14.80
2019-02-15T18:40:10.775Z,11.40
2019-02-15T18:42:39.241Z,10.73
2019-02-15T18:45:13.040Z,10.73
2019-02-15T18:47:41.449Z,15.93
2019-02-15T18:50:10.709Z,12.97
2019-02-15T18:52:39.112Z,13.63
2019-02-15T18:55:09.960Z,9.67
2019-02-15T18:57:38.625Z,12.10
2019-02-15T19:00:14.683Z,11.73
2019-02-15T19:02:45.209Z,9.00
2019-02-15T19:05:14.267Z,19.63
2019-02-15T19:07:42.685Z,9.77
2019-02-15T19:10:16.521Z,10.80
2019-02-15T19:12:44.955Z,10.17
2019-02-15T19:15:15.445Z,8.37
2019-02-15T19:17:44.146Z,15.03
2019-02-15T19:20:14.918Z,5.87
2019-02-15T19:22:43.348Z,7.53
2019-02-15T19:25:14.544Z,12.07
2019-02-15T19:27:42.963Z,12.10
2019-02-15T19:30:32.477Z,10.90
2019-02-15T19:33:00.876Z,9.17
2019-02-15T19:35:29.298Z,8.70
2019-02-15T19:37:57.697Z,9.13
2019-02-15T19:40:26.116Z,11.20
2019-02-15T19:43:00.665Z,11.17
2019-02-15T19:45:31.975Z,20.60
2019-02-15T19:48:00.432Z,14.23
2019-02-15T19:50:28.837Z,15.53
2019-02-15T19:52:57.245Z,13.00
2019-02-15T19:55:25.776Z,7.50
2019-02-15T19:57:54.182Z,9.30
2019-02-15T20:00:22.585Z,24.17
2019-02-15T20:02:50.989Z,13.10
2019-02-15T20:05:19.430Z,12.03
2019-02-15T20:07:47.869Z,12.53
2019-02-15T20:10:21.909Z,10.17
2019-02-15T20:12:50.324Z,18.03
2019-02-15T20:15:18.733Z,25.60
2019-02-15T20:17:47.166Z,20.13
2019-02-15T20:20:17.176Z,13.20
2019-02-15T20:22:45.680Z,15.23
2019-02-15T20:25:14.260Z,11.10
2019-02-15T20:27:42.679Z,8.93
2019-02-15T20:30:16.529Z,11.37
2019-02-15T20:32:44.953Z,16.30
2019-02-15T20:35:13.690Z,9.63
2019-02-15T20:37:42.278Z,10.33
2019-02-15T20:40:12.214Z,9.37
2019-02-15T20:42:40.719Z,11.37
2019-02-15T20:45:17.308Z,10.07
2019-02-15T20:47:45.807Z,7.90
2019-02-15T20:50:14.967Z,10.00
2019-02-15T20:52:43.542Z,8.77
2019-02-15T20:55:14.478Z,13.30
2019-02-15T20:57:42.933Z,9.20
2019-02-15T21:00:17.315Z,11.60
2019-02-15T21:02:45.872Z,12.20
2019-02-15T21:05:14.299Z,13.73
2019-02-15T21:07:42.792Z,28.80
2019-02-15T21:10:14.001Z,21.40
2019-02-15T21:12:42.477Z,17.20
2019-02-15T21:15:12.833Z,13.07
2019-02-15T21:17:41.258Z,10.20
2019-02-15T21:20:14.599Z,8.87
2019-02-15T21:22:43.007Z,12.53
2019-02-15T21:25:16.208Z,11.40
2019-02-15T21:27:44.845Z,17.13
2019-02-15T21:30:26.932Z,30.53
2019-02-15T21:32:55.368Z,13.10
2019-02-15T21:35:23.793Z,13.03
2019-02-15T21:37:57.144Z,7.17
2019-02-15T21:40:26.486Z,11.83
2019-02-15T21:43:01.028Z,7.80
2019-02-15T21:45:29.467Z,9.70
2019-02-15T21:47:58.912Z,8.33
2019-02-15T21:50:27.319Z,8.03
2019-02-15T21:52:55.714Z,8.10
2019-02-15T21:55:24.128Z,7.77
2019-02-15T21:58:00.775Z,10.23
2019-02-15T22:00:24.525Z,11.67
2019-02-15T22:02:52.949Z,8.50
2019-02-15T22:05:21.386Z,9.23
2019-02-15T22:07:49.843Z,9.87
2019-02-15T22:10:18.249Z,6.30
2019-02-15T22:12:47.060Z,49.07
2019-02-15T22:15:17.265Z,63.07
2019-02-15T22:17:45.679Z,10.53
2019-02-15T22:20:15.540Z,8.80
2019-02-15T22:22:43.932Z,11.80
2019-02-15T22:25:12.625Z,13.10
2019-02-15T22:27:41.038Z,14.07
2019-02-15T22:30:12.462Z,8.23
2019-02-15T22:32:42.444Z,7.57
2019-02-15T22:35:11.329Z,7.87
2019-02-15T22:37:39.818Z,10.60
2019-02-15T22:40:33.289Z,13.43
2019-02-15T22:43:10.684Z,10.53
2019-02-15T22:45:39.831Z,20.70
2019-02-15T22:48:08.230Z,18.27
2019-02-15T22:50:36.701Z,18.47
2019-02-15T22:53:05.104Z,23.60
2019-02-15T22:55:33.525Z,17.70
2019-02-15T22:58:01.932Z,54.67
2019-02-15T23:00:52.938Z,11.30
2019-02-15T23:03:23.972Z,9.83
2019-02-15T23:05:52.383Z,14.60
2019-02-15T23:08:20.805Z,12.17
2019-02-15T23:10:49.409Z,11.80
2019-02-15T23:13:17.844Z,9.07
2019-02-15T23:15:46.257Z,11.40
2019-02-15T23:18:14.656Z,10.10
2019-02-15T23:20:45.328Z,12.63
2019-02-15T23:23:13.213Z,16.13
2019-02-15T23:25:41.684Z,7.83
2019-02-15T23:28:10.080Z,15.33
2019-02-15T23:30:38.494Z,9.33
2019-02-15T23:33:06.892Z,8.57
2019-02-15T23:35:35.308Z,10.63
2019-02-15T23:38:03.871Z,9.23
2019-02-15T23:40:32.282Z,9.83
2019-02-15T23:43:00.688Z,9.27
2019-02-15T23:45:29.101Z,10.20
2019-02-15T23:47:57.523Z,12.50
2019-02-15T23:50:25.939Z,10.43
2019-02-15T23:52:54.413Z,10.20
2019-02-15T23:55:22.834Z,9.83
2019-02-15T23:57:51.228Z,10.93
